sensor_id;sensor_type;location;lat;lon;timestamp;temperature;humidity
1936;DHT22;969;49.892;10.896;2023-12-20T00:00:57;21.10;56.40
1936;DHT22;969;49.892;10.896;2023-12-20T00:03:23;21.10;56.40
1936;DHT22;969;49.892;10.896;2023-12-20T00:05:49;21.10;56.40
1936;DHT22;969;49.892;10.896;2023-12-20T00:08:15;21.10;56.40
1936;DHT22;969;49.892;10.896;2023-12-20T00:10:41;21.10;56.40
1936;DHT22;969;49.892;10.896;2023-12-20T00:13:07;21.10;56.40
1936;DHT22;969;49.892;10.896;2023-12-20T00:15:33;21.10;56.40
1936;DHT22;969;49.892;10.896;2023-12-20T00:17:59;21.10;56.40
1936;DHT22;969;49.892;10.896;2023-12-20T00:20:25;21.00;56.40
1936;DHT22;969;49.892;10.896;2023-12-20T00:22:50;21.10;56.40
1936;DHT22;969;49.892;10.896;2023-12-20T00:25:16;21.00;56.30
1936;DHT22;969;49.892;10.896;2023-12-20T00:27:41;21.10;56.40
1936;DHT22;969;49.892;10.896;2023-12-20T00:30:08;21.10;56.40
1936;DHT22;969;49.892;10.896;2023-12-20T00:32:35;21.10;56.40
1936;DHT22;969;49.892;10.896;2023-12-20T00:35:01;21.10;56.40
1936;DHT22;969;49.892;10.896;2023-12-20T00:37:26;21.10;56.40
1936;DHT22;969;49.892;10.896;2023-12-20T00:39:52;21.00;56.40
1936;DHT22;969;49.892;10.896;2023-12-20T00:42:17;21.00;56.40
1936;DHT22;969;49.892;10.896;2023-12-20T00:44:43;21.00;56.40
1936;DHT22;969;49.892;10.896;2023-12-20T00:47:08;21.00;56.40
1936;DHT22;969;49.892;10.896;2023-12-20T00:49:34;21.00;56.40
1936;DHT22;969;49.892;10.896;2023-12-20T00:52:00;21.00;56.40
1936;DHT22;969;49.892;10.896;2023-12-20T00:54:25;21.00;56.40
1936;DHT22;969;49.892;10.896;2023-12-20T00:56:51;21.00;56.40
1936;DHT22;969;49.892;10.896;2023-12-20T00:59:17;21.10;56.40
1936;DHT22;969;49.892;10.896;2023-12-20T01:01:43;21.00;56.40
1936;DHT22;969;49.892;10.896;2023-12-20T01:04:09;21.10;56.40
1936;DHT22;969;49.892;10.896;2023-12-20T01:06:34;21.00;56.40
1936;DHT22;969;49.892;10.896;2023-12-20T01:09:00;21.10;56.40
1936;DHT22;969;49.892;10.896;2023-12-20T01:11:25;21.00;56.40
1936;DHT22;969;49.892;10.896;2023-12-20T01:13:51;21.00;56.30
1936;DHT22;969;49.892;10.896;2023-12-20T01:16:16;21.00;56.40
1936;DHT22;969;49.892;10.896;2023-12-20T01:18:42;21.00;56.40
1936;DHT22;969;49.892;10.896;2023-12-20T01:21:07;21.00;56.40
1936;DHT22;969;49.892;10.896;2023-12-20T01:23:33;21.00;56.40
1936;DHT22;969;49.892;10.896;2023-12-20T01:25:59;21.10;56.40
1936;DHT22;969;49.892;10.896;2023-12-20T01:28:28;21.00;56.40
1936;DHT22;969;49.892;10.896;2023-12-20T01:30:53;21.00;56.40
1936;DHT22;969;49.892;10.896;2023-12-20T01:33:19;21.00;56.40
1936;DHT22;969;49.892;10.896;2023-12-20T01:35:44;21.00;56.40
1936;DHT22;969;49.892;10.896;2023-12-20T01:38:10;21.00;56.40
1936;DHT22;969;49.892;10.896;2023-12-20T01:40:36;21.00;56.40
1936;DHT22;969;49.892;10.896;2023-12-20T01:43:06;21.00;56.40
1936;DHT22;969;49.892;10.896;2023-12-20T01:45:32;21.00;56.40
1936;DHT22;969;49.892;10.896;2023-12-20T01:47:59;21.00;56.40
1936;DHT22;969;49.892;10.896;2023-12-20T01:50:25;21.00;56.40
1936;DHT22;969;49.892;10.896;2023-12-20T01:52:52;21.00;56.40
1936;DHT22;969;49.892;10.896;2023-12-20T01:55:21;21.00;56.40
1936;DHT22;969;49.892;10.896;2023-12-20T01:57:47;21.00;56.40
1936;DHT22;969;49.892;10.896;2023-12-20T02:00:13;21.00;56.40
1936;DHT22;969;49.892;10.896;2023-12-20T02:02:40;21.00;56.40
1936;DHT22;969;49.892;10.896;2023-12-20T02:05:11;21.00;56.30
1936;DHT22;969;49.892;10.896;2023-12-20T02:07:36;21.00;56.40
1936;DHT22;969;49.892;10.896;2023-12-20T02:10:02;21.00;56.40
1936;DHT22;969;49.892;10.896;2023-12-20T02:12:29;21.00;56.40
1936;DHT22;969;49.892;10.896;2023-12-20T02:14:55;21.00;56.40
1936;DHT22;969;49.892;10.896;2023-12-20T02:17:22;21.00;56.40
1936;DHT22;969;49.892;10.896;2023-12-20T02:19:49;21.00;56.40
1936;DHT22;969;49.892;10.896;2023-12-20T02:22:14;21.00;56.40
1936;DHT22;969;49.892;10.896;2023-12-20T02:24:40;21.00;56.40
1936;DHT22;969;49.892;10.896;2023-12-20T02:27:07;21.00;56.40
1936;DHT22;969;49.892;10.896;2023-12-20T02:29:34;21.00;56.40
1936;DHT22;969;49.892;10.896;2023-12-20T02:31:59;21.00;56.40
1936;DHT22;969;49.892;10.896;2023-12-20T02:34:25;20.90;56.30
1936;DHT22;969;49.892;10.896;2023-12-20T02:36:51;21.00;56.90
1936;DHT22;969;49.892;10.896;2023-12-20T02:39:16;21.00;56.40
1936;DHT22;969;49.892;10.896;2023-12-20T02:41:42;21.00;56.40
1936;DHT22;969;49.892;10.896;2023-12-20T02:44:08;20.90;56.30
1936;DHT22;969;49.892;10.896;2023-12-20T02:46:33;21.00;56.40
1936;DHT22;969;49.892;10.896;2023-12-20T02:48:59;21.00;56.40
1936;DHT22;969;49.892;10.896;2023-12-20T02:51:24;20.90;56.30
1936;DHT22;969;49.892;10.896;2023-12-20T02:53:50;21.00;56.40
1936;DHT22;969;49.892;10.896;2023-12-20T02:56:15;20.90;56.30
1936;DHT22;969;49.892;10.896;2023-12-20T02:58:41;21.00;56.40
1936;DHT22;969;49.892;10.896;2023-12-20T03:01:07;20.90;56.30
1936;DHT22;969;49.892;10.896;2023-12-20T03:03:32;21.00;56.40
1936;DHT22;969;49.892;10.896;2023-12-20T03:05:58;20.90;56.30
1936;DHT22;969;49.892;10.896;2023-12-20T03:08:24;20.90;56.30
1936;DHT22;969;49.892;10.896;2023-12-20T03:10:49;20.90;56.30
1936;DHT22;969;49.892;10.896;2023-12-20T03:13:15;20.90;56.30
1936;DHT22;969;49.892;10.896;2023-12-20T03:15:41;20.90;56.30
1936;DHT22;969;49.892;10.896;2023-12-20T03:18:06;20.90;56.30
1936;DHT22;969;49.892;10.896;2023-12-20T03:20:32;20.90;56.30
1936;DHT22;969;49.892;10.896;2023-12-20T03:23:00;20.90;56.30
1936;DHT22;969;49.892;10.896;2023-12-20T03:25:25;20.90;56.30
1936;DHT22;969;49.892;10.896;2023-12-20T03:27:52;20.90;56.30
1936;DHT22;969;49.892;10.896;2023-12-20T03:30:17;20.90;56.30
1936;DHT22;969;49.892;10.896;2023-12-20T03:32:43;20.90;56.30
1936;DHT22;969;49.892;10.896;2023-12-20T03:35:09;21.00;56.40
1936;DHT22;969;49.892;10.896;2023-12-20T03:37:34;20.90;56.30
1936;DHT22;969;49.892;10.896;2023-12-20T03:40:00;20.90;56.30
1936;DHT22;969;49.892;10.896;2023-12-20T03:42:26;20.90;56.40
1936;DHT22;969;49.892;10.896;2023-12-20T03:44:52;20.90;56.30
1936;DHT22;969;49.892;10.896;2023-12-20T03:47:17;20.90;56.30
1936;DHT22;969;49.892;10.896;2023-12-20T03:49:43;20.90;56.30
1936;DHT22;969;49.892;10.896;2023-12-20T03:52:08;20.90;56.30
1936;DHT22;969;49.892;10.896;2023-12-20T03:54:35;20.90;56.30
1936;DHT22;969;49.892;10.896;2023-12-20T03:57:01;20.90;56.30
1936;DHT22;969;49.892;10.896;2023-12-20T03:59:26;20.90;56.30
1936;DHT22;969;49.892;10.896;2023-12-20T04:01:52;20.90;56.30
1936;DHT22;969;49.892;10.896;2023-12-20T04:04:18;20.90;56.30
1936;DHT22;969;49.892;10.896;2023-12-20T04:06:44;20.90;56.30
1936;DHT22;969;49.892;10.896;2023-12-20T04:09:09;20.90;56.40
1936;DHT22;969;49.892;10.896;2023-12-20T04:11:36;20.90;56.30
1936;DHT22;969;49.892;10.896;2023-12-20T04:14:02;20.90;56.40
1936;DHT22;969;49.892;10.896;2023-12-20T04:16:27;20.90;56.40
1936;DHT22;969;49.892;10.896;2023-12-20T04:18:53;20.90;57.00
1936;DHT22;969;49.892;10.896;2023-12-20T04:21:18;20.90;56.40
1936;DHT22;969;49.892;10.896;2023-12-20T04:23:44;20.90;56.40
1936;DHT22;969;49.892;10.896;2023-12-20T04:26:10;20.90;56.40
1936;DHT22;969;49.892;10.896;2023-12-20T04:28:36;20.90;56.40
1936;DHT22;969;49.892;10.896;2023-12-20T04:31:01;20.90;56.40
1936;DHT22;969;49.892;10.896;2023-12-20T04:33:27;20.90;56.40
1936;DHT22;969;49.892;10.896;2023-12-20T04:35:53;20.90;56.40
1936;DHT22;969;49.892;10.896;2023-12-20T04:38:18;20.90;56.40
1936;DHT22;969;49.892;10.896;2023-12-20T04:40:44;20.90;56.40
1936;DHT22;969;49.892;10.896;2023-12-20T04:43:09;20.90;56.40
1936;DHT22;969;49.892;10.896;2023-12-20T04:45:35;20.90;56.40
1936;DHT22;969;49.892;10.896;2023-12-20T04:48:02;20.90;56.40
1936;DHT22;969;49.892;10.896;2023-12-20T04:50:28;20.90;56.40
1936;DHT22;969;49.892;10.896;2023-12-20T04:52:53;20.90;56.40
1936;DHT22;969;49.892;10.896;2023-12-20T04:55:19;20.90;56.40
1936;DHT22;969;49.892;10.896;2023-12-20T04:57:45;20.90;56.30
1936;DHT22;969;49.892;10.896;2023-12-20T05:00:11;20.90;56.40
1936;DHT22;969;49.892;10.896;2023-12-20T05:02:37;20.90;56.40
1936;DHT22;969;49.892;10.896;2023-12-20T05:05:03;20.90;56.40
1936;DHT22;969;49.892;10.896;2023-12-20T05:07:29;20.90;56.40
1936;DHT22;969;49.892;10.896;2023-12-20T05:09:54;20.90;56.40
1936;DHT22;969;49.892;10.896;2023-12-20T05:12:20;20.90;56.40
1936;DHT22;969;49.892;10.896;2023-12-20T05:14:46;20.90;56.40
1936;DHT22;969;49.892;10.896;2023-12-20T05:17:11;20.90;56.30
1936;DHT22;969;49.892;10.896;2023-12-20T05:19:37;20.90;56.40
1936;DHT22;969;49.892;10.896;2023-12-20T05:22:03;20.90;56.40
1936;DHT22;969;49.892;10.896;2023-12-20T05:24:29;20.90;56.40
1936;DHT22;969;49.892;10.896;2023-12-20T05:26:54;20.90;56.40
1936;DHT22;969;49.892;10.896;2023-12-20T05:29:20;20.90;56.40
1936;DHT22;969;49.892;10.896;2023-12-20T05:31:46;20.90;56.30
1936;DHT22;969;49.892;10.896;2023-12-20T05:34:11;20.90;56.30
1936;DHT22;969;49.892;10.896;2023-12-20T05:36:37;20.90;56.30
1936;DHT22;969;49.892;10.896;2023-12-20T05:39:04;20.90;56.30
1936;DHT22;969;49.892;10.896;2023-12-20T05:41:30;20.90;56.30
1936;DHT22;969;49.892;10.896;2023-12-20T05:43:56;20.90;56.40
1936;DHT22;969;49.892;10.896;2023-12-20T05:46:23;20.90;56.30
1936;DHT22;969;49.892;10.896;2023-12-20T05:48:49;20.90;56.20
1936;DHT22;969;49.892;10.896;2023-12-20T05:51:15;20.90;56.20
1936;DHT22;969;49.892;10.896;2023-12-20T05:53:40;20.90;56.30
1936;DHT22;969;49.892;10.896;2023-12-20T05:56:06;20.90;56.30
1936;DHT22;969;49.892;10.896;2023-12-20T05:58:32;20.90;56.90
1936;DHT22;969;49.892;10.896;2023-12-20T06:00:58;20.90;56.30
1936;DHT22;969;49.892;10.896;2023-12-20T06:03:24;20.90;56.30
1936;DHT22;969;49.892;10.896;2023-12-20T06:05:49;20.90;56.40
1936;DHT22;969;49.892;10.896;2023-12-20T06:08:15;20.90;56.40
1936;DHT22;969;49.892;10.896;2023-12-20T06:10:40;20.90;56.30
1936;DHT22;969;49.892;10.896;2023-12-20T06:13:06;20.90;56.40
1936;DHT22;969;49.892;10.896;2023-12-20T06:15:32;20.90;56.40
1936;DHT22;969;49.892;10.896;2023-12-20T06:17:58;20.90;56.40
1936;DHT22;969;49.892;10.896;2023-12-20T06:20:24;20.90;56.40
1936;DHT22;969;49.892;10.896;2023-12-20T06:22:50;20.90;56.40
1936;DHT22;969;49.892;10.896;2023-12-20T06:25:16;20.90;56.40
1936;DHT22;969;49.892;10.896;2023-12-20T06:27:42;20.90;56.40
1936;DHT22;969;49.892;10.896;2023-12-20T06:30:07;20.90;56.40
1936;DHT22;969;49.892;10.896;2023-12-20T06:32:36;20.90;56.40
1936;DHT22;969;49.892;10.896;2023-12-20T06:35:03;20.90;56.40
1936;DHT22;969;49.892;10.896;2023-12-20T06:37:30;20.90;57.00
1936;DHT22;969;49.892;10.896;2023-12-20T06:39:56;20.90;56.40
1936;DHT22;969;49.892;10.896;2023-12-20T06:42:22;21.00;56.40
1936;DHT22;969;49.892;10.896;2023-12-20T06:44:48;21.00;56.40
1936;DHT22;969;49.892;10.896;2023-12-20T06:47:13;21.00;56.50
1936;DHT22;969;49.892;10.896;2023-12-20T06:49:40;21.00;56.40
1936;DHT22;969;49.892;10.896;2023-12-20T06:52:06;21.00;56.40
1936;DHT22;969;49.892;10.896;2023-12-20T06:54:31;21.00;56.40
1936;DHT22;969;49.892;10.896;2023-12-20T06:56:57;21.00;56.40
1936;DHT22;969;49.892;10.896;2023-12-20T06:59:22;21.10;56.50
1936;DHT22;969;49.892;10.896;2023-12-20T07:01:49;21.10;56.40
1936;DHT22;969;49.892;10.896;2023-12-20T07:04:15;21.10;56.40
1936;DHT22;969;49.892;10.896;2023-12-20T07:06:42;21.10;56.40
1936;DHT22;969;49.892;10.896;2023-12-20T07:09:07;21.10;56.40
1936;DHT22;969;49.892;10.896;2023-12-20T07:11:33;21.10;56.40
1936;DHT22;969;49.892;10.896;2023-12-20T07:13:58;21.10;56.40
1936;DHT22;969;49.892;10.896;2023-12-20T07:16:24;21.10;56.30
1936;DHT22;969;49.892;10.896;2023-12-20T07:18:50;21.10;56.30
1936;DHT22;969;49.892;10.896;2023-12-20T07:21:15;21.10;56.30
1936;DHT22;969;49.892;10.896;2023-12-20T07:23:41;21.10;56.30
1936;DHT22;969;49.892;10.896;2023-12-20T07:26:06;21.20;56.40
1936;DHT22;969;49.892;10.896;2023-12-20T07:28:32;21.10;56.30
1936;DHT22;969;49.892;10.896;2023-12-20T07:30:58;21.20;56.40
1936;DHT22;969;49.892;10.896;2023-12-20T07:33:24;21.20;56.40
1936;DHT22;969;49.892;10.896;2023-12-20T07:35:49;21.20;56.40
1936;DHT22;969;49.892;10.896;2023-12-20T07:38:17;21.20;56.40
1936;DHT22;969;49.892;10.896;2023-12-20T07:40:42;21.20;56.40
1936;DHT22;969;49.892;10.896;2023-12-20T07:43:08;21.20;56.40
1936;DHT22;969;49.892;10.896;2023-12-20T07:45:33;21.20;56.40
1936;DHT22;969;49.892;10.896;2023-12-20T07:47:59;21.20;56.40
1936;DHT22;969;49.892;10.896;2023-12-20T07:50:25;21.20;56.40
1936;DHT22;969;49.892;10.896;2023-12-20T07:52:51;21.20;56.40
1936;DHT22;969;49.892;10.896;2023-12-20T07:55:17;21.20;56.40
1936;DHT22;969;49.892;10.896;2023-12-20T07:57:42;21.20;57.00
1936;DHT22;969;49.892;10.896;2023-12-20T08:00:08;21.20;56.40
1936;DHT22;969;49.892;10.896;2023-12-20T08:02:34;21.20;56.40
1936;DHT22;969;49.892;10.896;2023-12-20T08:05:00;21.20;56.40
1936;DHT22;969;49.892;10.896;2023-12-20T08:07:25;21.20;56.40
1936;DHT22;969;49.892;10.896;2023-12-20T08:09:51;21.20;56.40
1936;DHT22;969;49.892;10.896;2023-12-20T08:12:17;21.20;56.40
1936;DHT22;969;49.892;10.896;2023-12-20T08:14:42;21.20;56.50
1936;DHT22;969;49.892;10.896;2023-12-20T08:17:08;21.20;56.50
1936;DHT22;969;49.892;10.896;2023-12-20T08:19:33;21.20;56.40
1936;DHT22;969;49.892;10.896;2023-12-20T08:21:59;21.20;56.40
1936;DHT22;969;49.892;10.896;2023-12-20T08:24:25;21.20;56.40
1936;DHT22;969;49.892;10.896;2023-12-20T08:26:50;21.20;56.40
1936;DHT22;969;49.892;10.896;2023-12-20T08:29:16;21.20;56.40
1936;DHT22;969;49.892;10.896;2023-12-20T08:31:41;21.20;56.40
1936;DHT22;969;49.892;10.896;2023-12-20T08:34:07;21.20;56.40
1936;DHT22;969;49.892;10.896;2023-12-20T08:36:32;21.20;56.30
1936;DHT22;969;49.892;10.896;2023-12-20T08:38:58;21.20;56.30
1936;DHT22;969;49.892;10.896;2023-12-20T08:41:26;21.20;56.30
1936;DHT22;969;49.892;10.896;2023-12-20T08:43:51;21.30;56.40
1936;DHT22;969;49.892;10.896;2023-12-20T08:46:17;21.20;56.30
1936;DHT22;969;49.892;10.896;2023-12-20T08:48:42;21.20;56.30
1936;DHT22;969;49.892;10.896;2023-12-20T08:51:08;21.30;56.40
1936;DHT22;969;49.892;10.896;2023-12-20T08:53:35;21.30;56.40
1936;DHT22;969;49.892;10.896;2023-12-20T08:56:00;21.30;56.40
1936;DHT22;969;49.892;10.896;2023-12-20T08:58:27;21.30;56.40
1936;DHT22;969;49.892;10.896;2023-12-20T09:00:53;21.30;56.40
1936;DHT22;969;49.892;10.896;2023-12-20T09:03:19;21.30;56.40
1936;DHT22;969;49.892;10.896;2023-12-20T09:05:44;21.30;56.40
1936;DHT22;969;49.892;10.896;2023-12-20T09:08:10;21.30;56.40
1936;DHT22;969;49.892;10.896;2023-12-20T09:10:37;21.30;56.40
1936;DHT22;969;49.892;10.896;2023-12-20T09:13:02;21.30;56.40
1936;DHT22;969;49.892;10.896;2023-12-20T09:15:29;21.30;56.40
1936;DHT22;969;49.892;10.896;2023-12-20T09:17:55;21.30;56.40
1936;DHT22;969;49.892;10.896;2023-12-20T09:20:21;21.30;56.40
1936;DHT22;969;49.892;10.896;2023-12-20T09:22:49;21.30;56.40
1936;DHT22;969;49.892;10.896;2023-12-20T09:25:14;21.30;56.40
1936;DHT22;969;49.892;10.896;2023-12-20T09:27:41;21.30;56.40
1936;DHT22;969;49.892;10.896;2023-12-20T09:30:07;21.30;56.40
1936;DHT22;969;49.892;10.896;2023-12-20T09:32:33;21.30;56.40
1936;DHT22;969;49.892;10.896;2023-12-20T09:34:58;21.30;56.40
1936;DHT22;969;49.892;10.896;2023-12-20T09:37:27;21.30;56.40
1936;DHT22;969;49.892;10.896;2023-12-20T09:39:53;21.30;56.40
1936;DHT22;969;49.892;10.896;2023-12-20T09:45:00;21.30;56.40
1936;DHT22;969;49.892;10.896;2023-12-20T09:47:28;21.30;56.40
1936;DHT22;969;49.892;10.896;2023-12-20T09:49:54;21.30;56.40
1936;DHT22;969;49.892;10.896;2023-12-20T09:52:22;21.30;56.40
1936;DHT22;969;49.892;10.896;2023-12-20T09:54:49;21.30;56.40
1936;DHT22;969;49.892;10.896;2023-12-20T09:57:17;21.30;56.40
1936;DHT22;969;49.892;10.896;2023-12-20T09:59:43;21.30;56.40
1936;DHT22;969;49.892;10.896;2023-12-20T10:02:13;21.30;56.40
1936;DHT22;969;49.892;10.896;2023-12-20T10:04:46;21.30;56.40
1936;DHT22;969;49.892;10.896;2023-12-20T10:07:12;21.30;56.40
1936;DHT22;969;49.892;10.896;2023-12-20T10:09:38;21.30;56.50
1936;DHT22;969;49.892;10.896;2023-12-20T10:12:04;21.30;56.50
1936;DHT22;969;49.892;10.896;2023-12-20T10:14:32;21.30;56.40
1936;DHT22;969;49.892;10.896;2023-12-20T10:17:04;21.30;56.40
1936;DHT22;969;49.892;10.896;2023-12-20T10:19:30;21.30;56.40
1936;DHT22;969;49.892;10.896;2023-12-20T10:21:59;21.30;56.50
1936;DHT22;969;49.892;10.896;2023-12-20T10:24:25;21.30;56.40
1936;DHT22;969;49.892;10.896;2023-12-20T10:27:04;21.30;56.50
1936;DHT22;969;49.892;10.896;2023-12-20T10:29:37;21.40;56.60
1936;DHT22;969;49.892;10.896;2023-12-20T10:32:26;21.40;56.60
1936;DHT22;969;49.892;10.896;2023-12-20T10:34:53;21.40;56.60
1936;DHT22;969;49.892;10.896;2023-12-20T10:37:19;21.40;56.60
1936;DHT22;969;49.892;10.896;2023-12-20T10:39:50;21.40;56.60
1936;DHT22;969;49.892;10.896;2023-12-20T10:42:18;21.40;56.60
1936;DHT22;969;49.892;10.896;2023-12-20T10:44:46;21.40;56.60
1936;DHT22;969;49.892;10.896;2023-12-20T10:47:13;21.40;56.60
1936;DHT22;969;49.892;10.896;2023-12-20T10:49:39;21.40;56.60
1936;DHT22;969;49.892;10.896;2023-12-20T10:52:06;21.40;56.60
1936;DHT22;969;49.892;10.896;2023-12-20T10:54:32;21.40;56.60
1936;DHT22;969;49.892;10.896;2023-12-20T10:56:58;21.40;56.60
1936;DHT22;969;49.892;10.896;2023-12-20T10:59:24;21.40;56.60
1936;DHT22;969;49.892;10.896;2023-12-20T11:01:50;21.40;56.60
1936;DHT22;969;49.892;10.896;2023-12-20T11:05:14;21.40;56.50
1936;DHT22;969;49.892;10.896;2023-12-20T11:07:17;21.40;56.50
1936;DHT22;969;49.892;10.896;2023-12-20T11:09:56;21.40;56.50
1936;DHT22;969;49.892;10.896;2023-12-20T11:12:35;21.40;56.60
1936;DHT22;969;49.892;10.896;2023-12-20T11:15:03;21.40;56.60
1936;DHT22;969;49.892;10.896;2023-12-20T11:17:31;21.40;56.60
1936;DHT22;969;49.892;10.896;2023-12-20T11:22:27;21.40;56.60
1936;DHT22;969;49.892;10.896;2023-12-20T11:24:53;21.40;56.60
1936;DHT22;969;49.892;10.896;2023-12-20T11:27:19;21.50;56.70
1936;DHT22;969;49.892;10.896;2023-12-20T11:29:52;21.50;56.70
1936;DHT22;969;49.892;10.896;2023-12-20T11:35:01;21.50;56.60
1936;DHT22;969;49.892;10.896;2023-12-20T11:37:41;21.50;56.60
1936;DHT22;969;49.892;10.896;2023-12-20T11:40:17;21.50;56.60
1936;DHT22;969;49.892;10.896;2023-12-20T11:42:45;21.50;56.60
1936;DHT22;969;49.892;10.896;2023-12-20T11:45:13;21.40;56.60
1936;DHT22;969;49.892;10.896;2023-12-20T11:47:44;21.50;56.60
1936;DHT22;969;49.892;10.896;2023-12-20T11:50:11;21.50;56.70
1936;DHT22;969;49.892;10.896;2023-12-20T11:52:36;21.50;56.60
1936;DHT22;969;49.892;10.896;2023-12-20T11:55:02;21.50;56.60
1936;DHT22;969;49.892;10.896;2023-12-20T11:57:29;21.50;56.60
1936;DHT22;969;49.892;10.896;2023-12-20T11:59:55;21.50;56.60
1936;DHT22;969;49.892;10.896;2023-12-20T12:02:21;21.50;56.60
1936;DHT22;969;49.892;10.896;2023-12-20T12:04:48;21.50;56.60
1936;DHT22;969;49.892;10.896;2023-12-20T12:07:14;21.50;56.60
1936;DHT22;969;49.892;10.896;2023-12-20T12:09:39;21.50;56.60
1936;DHT22;969;49.892;10.896;2023-12-20T12:12:06;21.50;57.20
1936;DHT22;969;49.892;10.896;2023-12-20T12:14:32;21.50;56.60
1936;DHT22;969;49.892;10.896;2023-12-20T12:16:57;21.50;56.60
1936;DHT22;969;49.892;10.896;2023-12-20T12:19:24;21.50;56.60
1936;DHT22;969;49.892;10.896;2023-12-20T12:21:51;21.50;56.60
1936;DHT22;969;49.892;10.896;2023-12-20T12:24:20;21.50;56.60
1936;DHT22;969;49.892;10.896;2023-12-20T12:26:51;21.50;56.60
1936;DHT22;969;49.892;10.896;2023-12-20T12:29:16;21.50;56.60
1936;DHT22;969;49.892;10.896;2023-12-20T12:31:42;21.50;56.60
1936;DHT22;969;49.892;10.896;2023-12-20T12:34:08;21.50;56.60
1936;DHT22;969;49.892;10.896;2023-12-20T12:36:34;21.50;56.60
1936;DHT22;969;49.892;10.896;2023-12-20T12:39:02;21.50;56.60
1936;DHT22;969;49.892;10.896;2023-12-20T12:41:30;21.50;56.60
1936;DHT22;969;49.892;10.896;2023-12-20T12:43:55;21.50;56.60
1936;DHT22;969;49.892;10.896;2023-12-20T12:46:21;21.50;56.60
1936;DHT22;969;49.892;10.896;2023-12-20T12:48:47;21.50;56.60
1936;DHT22;969;49.892;10.896;2023-12-20T12:51:12;21.50;56.60
1936;DHT22;969;49.892;10.896;2023-12-20T12:53:39;21.50;56.60
1936;DHT22;969;49.892;10.896;2023-12-20T12:56:05;21.50;56.60
1936;DHT22;969;49.892;10.896;2023-12-20T12:58:31;21.50;56.60
1936;DHT22;969;49.892;10.896;2023-12-20T13:00:57;21.50;56.60
1936;DHT22;969;49.892;10.896;2023-12-20T13:03:23;21.50;56.60
1936;DHT22;969;49.892;10.896;2023-12-20T13:05:49;21.50;56.60
1936;DHT22;969;49.892;10.896;2023-12-20T13:08:15;21.50;56.60
1936;DHT22;969;49.892;10.896;2023-12-20T13:10:41;21.50;56.60
1936;DHT22;969;49.892;10.896;2023-12-20T13:13:06;21.50;56.60
1936;DHT22;969;49.892;10.896;2023-12-20T13:15:32;21.40;56.50
1936;DHT22;969;49.892;10.896;2023-12-20T13:17:58;21.40;56.50
1936;DHT22;969;49.892;10.896;2023-12-20T13:20:23;21.40;56.60
1936;DHT22;969;49.892;10.896;2023-12-20T13:22:49;21.40;56.60
1936;DHT22;969;49.892;10.896;2023-12-20T13:25:14;21.40;56.60
1936;DHT22;969;49.892;10.896;2023-12-20T13:27:41;21.40;56.60
1936;DHT22;969;49.892;10.896;2023-12-20T13:30:07;21.40;56.60
1936;DHT22;969;49.892;10.896;2023-12-20T13:32:32;21.40;56.60
1936;DHT22;969;49.892;10.896;2023-12-20T13:34:58;21.40;56.70
1936;DHT22;969;49.892;10.896;2023-12-20T13:37:24;21.40;56.60
1936;DHT22;969;49.892;10.896;2023-12-20T13:39:49;21.40;56.70
1936;DHT22;969;49.892;10.896;2023-12-20T13:42:15;21.40;56.60
1936;DHT22;969;49.892;10.896;2023-12-20T13:44:40;21.40;56.60
1936;DHT22;969;49.892;10.896;2023-12-20T13:47:06;21.40;56.70
1936;DHT22;969;49.892;10.896;2023-12-20T13:49:32;21.40;56.70
1936;DHT22;969;49.892;10.896;2023-12-20T13:51:57;21.40;56.70
1936;DHT22;969;49.892;10.896;2023-12-20T13:54:24;21.40;56.70
1936;DHT22;969;49.892;10.896;2023-12-20T13:56:49;21.30;56.60
1936;DHT22;969;49.892;10.896;2023-12-20T13:59:15;21.40;56.70
1936;DHT22;969;49.892;10.896;2023-12-20T14:01:41;21.40;56.70
1936;DHT22;969;49.892;10.896;2023-12-20T14:04:07;21.40;56.70
1936;DHT22;969;49.892;10.896;2023-12-20T14:06:33;21.40;56.70
1936;DHT22;969;49.892;10.896;2023-12-20T14:08:58;21.40;56.70
1936;DHT22;969;49.892;10.896;2023-12-20T14:11:28;21.40;56.70
1936;DHT22;969;49.892;10.896;2023-12-20T14:13:54;21.40;56.70
1936;DHT22;969;49.892;10.896;2023-12-20T14:16:23;21.40;56.70
1936;DHT22;969;49.892;10.896;2023-12-20T14:18:49;21.40;56.70
1936;DHT22;969;49.892;10.896;2023-12-20T14:21:17;21.40;56.70
1936;DHT22;969;49.892;10.896;2023-12-20T14:23:42;21.40;56.70
1936;DHT22;969;49.892;10.896;2023-12-20T14:26:09;21.40;56.70
1936;DHT22;969;49.892;10.896;2023-12-20T14:28:41;21.40;56.70
1936;DHT22;969;49.892;10.896;2023-12-20T14:31:06;21.40;56.70
1936;DHT22;969;49.892;10.896;2023-12-20T14:33:32;21.40;56.70
1936;DHT22;969;49.892;10.896;2023-12-20T14:35:57;21.40;56.70
1936;DHT22;969;49.892;10.896;2023-12-20T14:38:23;21.40;56.70
1936;DHT22;969;49.892;10.896;2023-12-20T14:40:49;21.40;56.70
1936;DHT22;969;49.892;10.896;2023-12-20T14:43:16;21.40;56.70
1936;DHT22;969;49.892;10.896;2023-12-20T14:45:42;21.40;56.70
1936;DHT22;969;49.892;10.896;2023-12-20T14:48:07;21.40;56.70
1936;DHT22;969;49.892;10.896;2023-12-20T14:50:33;21.40;56.70
1936;DHT22;969;49.892;10.896;2023-12-20T14:52:58;21.40;56.70
1936;DHT22;969;49.892;10.896;2023-12-20T14:55:25;21.40;56.70
1936;DHT22;969;49.892;10.896;2023-12-20T14:57:52;21.40;56.70
1936;DHT22;969;49.892;10.896;2023-12-20T15:00:18;21.40;56.70
1936;DHT22;969;49.892;10.896;2023-12-20T15:02:45;21.50;56.80
1936;DHT22;969;49.892;10.896;2023-12-20T15:05:11;21.50;56.80
1936;DHT22;969;49.892;10.896;2023-12-20T15:07:36;21.50;56.80
1936;DHT22;969;49.892;10.896;2023-12-20T15:10:02;21.50;56.80
1936;DHT22;969;49.892;10.896;2023-12-20T15:12:28;21.50;56.80
1936;DHT22;969;49.892;10.896;2023-12-20T15:14:54;21.50;56.80
1936;DHT22;969;49.892;10.896;2023-12-20T15:17:20;21.50;56.80
1936;DHT22;969;49.892;10.896;2023-12-20T15:19:45;21.50;56.80
1936;DHT22;969;49.892;10.896;2023-12-20T15:22:11;21.50;56.80
1936;DHT22;969;49.892;10.896;2023-12-20T15:24:37;21.50;56.80
1936;DHT22;969;49.892;10.896;2023-12-20T15:27:06;21.50;56.80
1936;DHT22;969;49.892;10.896;2023-12-20T15:29:32;21.50;56.80
1936;DHT22;969;49.892;10.896;2023-12-20T15:31:57;21.50;56.80
1936;DHT22;969;49.892;10.896;2023-12-20T15:34:23;21.50;56.80
1936;DHT22;969;49.892;10.896;2023-12-20T15:36:49;21.50;56.80
1936;DHT22;969;49.892;10.896;2023-12-20T15:39:14;21.50;56.80
1936;DHT22;969;49.892;10.896;2023-12-20T15:41:40;21.50;56.80
1936;DHT22;969;49.892;10.896;2023-12-20T15:44:05;21.60;56.80
1936;DHT22;969;49.892;10.896;2023-12-20T15:46:31;21.60;56.80
1936;DHT22;969;49.892;10.896;2023-12-20T15:48:57;21.60;56.80
1936;DHT22;969;49.892;10.896;2023-12-20T15:51:23;21.60;56.80
1936;DHT22;969;49.892;10.896;2023-12-20T15:53:49;21.60;56.80
1936;DHT22;969;49.892;10.896;2023-12-20T15:56:16;21.60;56.80
1936;DHT22;969;49.892;10.896;2023-12-20T15:58:42;21.60;56.80
1936;DHT22;969;49.892;10.896;2023-12-20T16:01:07;21.60;56.80
1936;DHT22;969;49.892;10.896;2023-12-20T16:03:34;21.60;56.80